Terminal Aerodrome Forecast
Issued by NWS Charleston, WV

Current Version | Previous Version | Text Only | Print | Product List | Glossary Off
Versions: 1 2 3 4 5 6 7 8 9 10 11 12 13 14 15 16 17 18 19 20 21 22 23 24 25 26 27 28

000
FTUS41 KRLX 181400 CCA
TAFHTS
TAF COR
KHTS 181457Z 1815/1912 16005KT 3SM BR BKN010
     FM181600 25004KT 6SM BR BKN015
     FM181800 24006KT P6SM BKN035
     FM190000 VRB03KT 6SM BR VCTS BKN030CB
     FM190200 VRB03KT 5SM BR VCTS BKN025CB
     FM190600 VRB03KT 2SM BR BKN015=

USA.gov is the U.S. government's official web portal to all federal, state and local government web resources and services.